KCSQ/CSQ METAR and TAF weather

Enter ICAO airport designator
Station Type Date Time Source
KCSQ METAR 2021/04/17 02:55 UTC NOAA

KCSQ 170255Z AUTO 27005KT 10SM -UP FEW032 SCT042 BKN049 06/06 A3002 RMK AO2


Station Type Date Time Source
KCSQ Decoded METAR 2021/04/17 02:55 UTC NOAA

Creston, IA, United States (KCSQ) 41-01N 094-22W
Apr 16, 2021 - 10:55 PM EDT / 2021.04.17 0255 UTC
Wind: from the W (270 degrees) at 6 MPH (5 KT):0
Visibility: 10 mile(s):0
Sky conditions: mostly cloudy
Weather: light precipitation
Temperature: 42 F (6 C)
Dew Point: 42 F (6 C)
Relative Humidity: 100%
Pressure (altimeter): 30.02 in. Hg (1016 hPa)
ob: KCSQ 170255Z AUTO 27005KT 10SM -UP FEW032 SCT042 BKN049 06/06 A3002 RMK AO2
cycle: 3

Station Type Date Time Source
KCSQ TAF UTC NOAA

Error!

Example: see airport list